Time;durP1;ratioP1;P1;durP2;ratioP2;P2;SDS_P1;SDS_P2;PMS_P1;PMS_P2;Temp;Humidity;BMP_temperature;BMP_pressure;BME280_temperature;BME280_humidity;BME280_pressure;Samples;Min_cycle;Max_cycle;Signal;HPM_P1;HPM_P2
2022/11/02 00:02:16;;;;;;;4.37;1.47;;;16.60;33.90;;;;;;5051649;28;20217;-69
2022/11/02 00:04:43;;;;;;;2.43;0.90;;;16.60;33.20;;;;;;5053956;28;20637;-72
2022/11/02 00:07:11;;;;;;;0.53;0.53;;;16.30;33.70;;;;;;5040076;28;20197;-72
2022/11/02 00:09:38;;;;;;;0.93;0.60;;;16.60;33.90;;;;;;5038617;28;20272;-72
2022/11/02 00:12:06;;;;;;;1.37;0.73;;;16.60;34.40;;;;;;5056346;28;20189;-71
2022/11/02 00:14:33;;;;;;;3.60;0.80;;;16.90;34.20;;;;;;5052713;28;20180;-69
2022/11/02 00:17:01;;;;;;;1.57;0.77;;;16.90;34.40;;;;;;5052404;28;20644;-72
2022/11/02 00:19:29;;;;;;;5.30;0.60;;;16.90;33.00;;;;;;5044510;28;20184;-71
2022/11/02 00:21:58;;;;;;;1.33;0.70;;;16.90;32.70;;;;;;5051024;28;20182;-70
2022/11/02 00:24:26;;;;;;;4.17;0.77;;;16.70;33.40;;;;;;5054146;28;20191;-73
2022/11/02 00:26:54;;;;;;;2.27;0.60;;;16.70;33.30;;;;;;5049628;28;20207;-74
2022/11/02 00:29:23;;;;;;;1.63;0.83;;;16.90;32.90;;;;;;5054033;28;20732;-71
2022/11/02 00:31:50;;;;;;;0.73;0.60;;;17.10;32.70;;;;;;5052946;28;20393;-69
2022/11/02 00:34:18;;;;;;;2.37;0.70;;;17.40;32.20;;;;;;5053320;28;20302;-72
2022/11/02 00:36:45;;;;;;;0.70;0.60;;;17.60;31.60;;;;;;5049700;28;20198;-70
2022/11/02 00:39:13;;;;;;;1.47;0.70;;;17.40;31.70;;;;;;5049889;28;20212;-71
2022/11/02 00:41:41;;;;;;;0.60;0.60;;;17.80;31.40;;;;;;5052881;28;20262;-72
2022/11/02 00:44:09;;;;;;;3.33;0.90;;;17.60;31.00;;;;;;5044006;28;20235;-68
2022/11/02 00:46:36;;;;;;;0.77;0.70;;;17.50;31.80;;;;;;5054238;28;20187;-71
2022/11/02 00:49:04;;;;;;;0.50;0.50;;;17.80;30.70;;;;;;5041997;28;20241;-71
2022/11/02 00:51:32;;;;;;;0.73;0.63;;;17.60;30.50;;;;;;5053689;28;20630;-76
2022/11/02 00:54:00;;;;;;;1.33;0.50;;;17.80;31.10;;;;;;5048404;28;20230;-77
2022/11/02 00:56:28;;;;;;;4.27;0.50;;;18.00;31.00;;;;;;5045414;28;20190;-71
2022/11/02 00:58:56;;;;;;;1.10;0.70;;;17.80;30.60;;;;;;5054131;28;20184;-73
2022/11/02 01:01:24;;;;;;;0.60;0.60;;;18.20;29.70;;;;;;5052031;28;20180;-75
2022/11/02 01:03:54;;;;;;;1.53;0.53;;;17.60;30.60;;;;;;5034529;28;20658;-72
2022/11/02 01:06:22;;;;;;;0.70;0.70;;;17.30;30.50;;;;;;5032664;28;20187;-72
2022/11/02 01:08:50;;;;;;;7.43;0.63;;;17.50;31.40;;;;;;5054400;28;20191;-74
2022/11/02 01:11:21;;;;;;;0.87;0.63;;;17.80;31.60;;;;;;5036399;28;21703;-73
2022/11/02 01:13:53;;;;;;;4.43;0.70;;;17.80;31.30;;;;;;5036147;28;20296;-75
2022/11/02 01:16:21;;;;;;;0.70;0.50;;;18.00;31.10;;;;;;5069462;28;20227;-73
2022/11/02 01:18:59;;;;;;;0.93;0.60;;;18.40;30.20;;;;;;5050806;28;20176;-76
2022/11/02 01:21:27;;;;;;;1.30;0.60;;;18.00;30.60;;;;;;5050343;28;20571;-74
2022/11/02 01:23:59;;;;;;;0.70;0.70;;;18.50;30.40;;;;;;5048834;28;20184;-76
2022/11/02 01:26:27;;;;;;;1.67;0.77;;;18.80;30.20;;;;;;5052934;28;20188;-73
2022/11/02 01:28:55;;;;;;;0.50;0.50;;;18.60;29.60;;;;;;5059062;28;20189;-74
2022/11/02 01:31:23;;;;;;;0.40;0.40;;;18.40;30.10;;;;;;5055164;28;20310;-74
2022/11/02 01:33:51;;;;;;;2.73;0.53;;;18.40;29.30;;;;;;5063370;28;20221;-75
2022/11/02 01:36:22;;;;;;;4.00;0.60;;;18.60;28.60;;;;;;5055567;28;20273;-74
2022/11/02 01:38:49;;;;;;;1.60;0.60;;;18.50;29.30;;;;;;5051728;28;20183;-71
2022/11/02 01:41:18;;;;;;;0.73;0.50;;;18.70;29.90;;;;;;5054554;28;20541;-71
2022/11/02 01:43:46;;;;;;;0.90;0.60;;;18.80;30.40;;;;;;5054536;28;20330;-71
2022/11/02 01:46:21;;;;;;;0.43;0.43;;;18.80;31.00;;;;;;5054298;28;20190;-69
2022/11/02 01:48:55;;;;;;;4.30;0.63;;;18.70;30.10;;;;;;5056304;28;20508;-72
2022/11/02 01:51:31;;;;;;;1.57;0.50;;;19.10;29.50;;;;;;5058976;28;20189;-71
2022/11/02 01:54:08;;;;;;;0.57;0.50;;;18.80;28.50;;;;;;5056225;28;20211;-71
2022/11/02 01:56:37;;;;;;;0.60;0.50;;;19.00;28.70;;;;;;5064714;28;20198;-71
2022/11/02 01:59:10;;;;;;;0.43;0.43;;;19.00;29.20;;;;;;5053806;28;20550;-68
2022/11/02 02:01:37;;;;;;;0.50;0.50;;;19.10;27.80;;;;;;5047880;28;20249;-68
2022/11/02 02:04:05;;;;;;;0.40;0.40;;;18.80;28.30;;;;;;5062812;28;20266;-70
2022/11/02 02:06:33;;;;;;;0.70;0.50;;;18.70;28.30;;;;;;5038704;28;20209;-71
2022/11/02 02:09:04;;;;;;;1.00;0.50;;;18.90;27.70;;;;;;5056738;28;20242;-70
2022/11/02 02:11:39;;;;;;;0.73;0.40;;;18.90;27.40;;;;;;5057495;28;20187;-75
2022/11/02 02:14:13;;;;;;;1.87;0.63;;;18.70;28.30;;;;;;5056524;28;20222;-71
2022/11/02 02:16:49;;;;;;;0.40;0.40;;;18.80;27.80;;;;;;5050938;28;20266;-70
2022/11/02 02:19:55;;;;;;;0.50;0.40;;;19.20;27.70;;;;;;5052079;28;20587;-68
2022/11/02 02:22:37;;;;;;;0.67;0.40;;;19.60;27.60;;;;;;5058253;28;20988;-69
2022/11/02 02:25:26;;;;;;;4.23;0.53;;;19.10;28.50;;;;;;5044660;28;20204;-72
2022/11/02 02:28:11;;;;;;;0.50;0.40;;;19.10;28.30;;;;;;5055090;28;20175;-70
2022/11/02 02:30:55;;;;;;;0.40;0.40;;;19.60;28.50;;;;;;5055056;28;20183;-71
2022/11/02 02:33:35;;;;;;;0.43;0.43;;;19.80;28.70;;;;;;5050810;28;20223;-70
2022/11/02 02:36:34;;;;;;;1.40;0.40;;;20.40;26.50;;;;;;5059009;28;20175;-70
2022/11/02 02:39:42;;;;;;;0.73;0.37;;;20.30;25.90;;;;;;5049758;28;20231;-70
2022/11/02 02:42:22;;;;;;;1.13;0.37;;;20.20;27.00;;;;;;4985849;28;20177;-70
2022/11/02 02:45:17;;;;;;;2.23;0.70;;;20.30;26.80;;;;;;4979358;28;20234;-70
2022/11/02 02:48:03;;;;;;;1.03;0.50;;;19.80;26.90;;;;;;5032197;28;20658;-71
2022/11/02 02:50:41;;;;;;;4.33;0.60;;;20.20;27.50;;;;;;5051174;28;20180;-70
2022/11/02 02:53:11;;;;;;;0.50;0.40;;;20.00;28.60;;;;;;5036280;28;20215;-70
2022/11/02 02:55:43;;;;;;;1.67;0.60;;;19.80;28.80;;;;;;5046413;28;20230;-70
2022/11/02 02:58:36;;;;;;;1.97;0.50;;;20.20;29.30;;;;;;5052322;28;20176;-73
2022/11/02 03:01:05;;;;;;;0.30;0.30;;;19.80;29.90;;;;;;5050528;28;20180;-69
2022/11/02 03:03:34;;;;;;;0.50;0.50;;;19.90;27.50;;;;;;5046965;28;20180;-71
2022/11/02 03:06:32;;;;;;;0.57;0.50;;;20.20;27.70;;;;;;5053896;28;20175;-70
2022/11/02 03:09:28;;;;;;;5.27;0.67;;;20.30;27.80;;;;;;5054530;28;20195;-70
2022/11/02 03:12:20;;;;;;;0.90;0.40;;;20.80;27.50;;;;;;5050856;28;20542;-68
2022/11/02 03:15:10;;;;;;;0.30;0.30;;;20.80;27.90;;;;;;5056082;28;20184;-69
2022/11/02 03:17:46;;;;;;;4.10;0.60;;;20.50;28.40;;;;;;5030158;28;20190;-69
2022/11/02 03:20:26;;;;;;;1.90;0.33;;;19.50;28.40;;;;;;5056925;28;20171;-69
2022/11/02 03:23:28;;;;;;;1.20;0.60;;;19.70;28.10;;;;;;5055340;28;20206;-71
2022/11/02 03:26:20;;;;;;;1.17;0.40;;;20.30;27.00;;;;;;5041520;28;20194;-71
2022/11/02 03:29:15;;;;;;;0.67;0.50;;;20.50;27.00;;;;;;5062423;28;20182;-71
2022/11/02 03:31:54;;;;;;;0.53;0.30;;;20.60;27.70;;;;;;5061374;28;20619;-70
2022/11/02 03:34:46;;;;;;;0.47;0.40;;;21.20;28.10;;;;;;5065996;28;20301;-73
2022/11/02 03:37:22;;;;;;;0.47;0.40;;;21.00;26.80;;;;;;5058185;28;20176;-70
2022/11/02 03:39:58;;;;;;;0.93;0.60;;;21.00;26.60;;;;;;5050829;28;20183;-69
2022/11/02 03:42:30;;;;;;;0.40;0.30;;;21.10;26.60;;;;;;5064515;28;20644;-70
2022/11/02 03:45:30;;;;;;;2.23;0.50;;;20.40;26.90;;;;;;5048102;28;20227;-69
2022/11/02 03:48:02;;;;;;;0.60;0.47;;;20.50;26.20;;;;;;5052850;28;20188;-70
2022/11/02 03:50:31;;;;;;;1.77;0.30;;;20.60;26.80;;;;;;5053672;28;20188;-70
2022/11/02 03:53:07;;;;;;;0.30;0.30;;;20.80;26.60;;;;;;5053778;28;20299;-73
2022/11/02 03:55:41;;;;;;;0.47;0.40;;;21.30;26.10;;;;;;5059074;28;20179;-70
2022/11/02 03:58:12;;;;;;;1.73;1.50;;;21.30;26.50;;;;;;5057888;28;20209;-68
2022/11/02 04:01:00;;;;;;;1.07;0.40;;;21.80;26.70;;;;;;5052326;28;20252;-69
2022/11/02 04:03:30;;;;;;;0.57;0.40;;;21.30;27.00;;;;;;5057551;28;20179;-71
2022/11/02 04:05:58;;;;;;;2.73;0.73;;;21.20;27.40;;;;;;5054758;28;20246;-71
2022/11/02 04:08:43;;;;;;;2.00;0.70;;;20.80;26.30;;;;;;5060731;28;20186;-69
2022/11/02 04:16:44;;;;;;;0.40;0.30;;;21.30;25.80;;;;;;5062981;28;20592;-70
2022/11/02 04:19:26;;;;;;;0.50;0.50;;;21.70;24.80;;;;;;5049856;28;20688;-74
2022/11/02 04:27:29;;;;;;;0.40;0.30;;;22.40;24.90;;;;;;5054805;28;20676;-70
2022/11/02 04:29:56;;;;;;;0.30;0.30;;;22.30;24.60;;;;;;5053756;28;20186;-70
2022/11/02 04:35:09;;;;;;;0.50;0.30;;;22.40;25.70;;;;;;5051485;28;20661;-70
2022/11/02 04:40:27;;;;;;;3.47;0.30;;;22.30;26.10;;;;;;5052528;28;20245;-72
2022/11/02 04:42:54;;;;;;;0.73;0.40;;;21.90;25.60;;;;;;5057261;28;20260;-69
2022/11/02 04:45:22;;;;;;;2.03;0.47;;;22.30;25.70;;;;;;5036398;28;20620;-69
2022/11/02 04:47:49;;;;;;;1.23;0.40;;;23.00;25.10;;;;;;5049066;28;20181;-72
2022/11/02 04:50:17;;;;;;;0.40;0.40;;;22.80;24.60;;;;;;5044595;28;20184;-70
2022/11/02 04:52:44;;;;;;;0.77;0.43;;;23.20;23.80;;;;;;5037925;28;20216;-70
2022/11/02 04:55:12;;;;;;;1.70;0.40;;;22.60;24.40;;;;;;5034478;28;20183;-69
2022/11/02 04:57:43;;;;;;;0.50;0.37;;;21.00;27.20;;;;;;5039151;28;20201;-70
2022/11/02 05:00:11;;;;;;;0.40;0.30;;;21.30;27.90;;;;;;5044193;28;20192;-70
2022/11/02 05:02:39;;;;;;;0.93;0.43;;;21.60;27.40;;;;;;5053738;28;20536;-70
2022/11/02 05:05:07;;;;;;;3.77;0.60;;;21.40;28.20;;;;;;5050611;28;20184;-69
2022/11/02 05:07:34;;;;;;;1.67;0.60;;;21.70;26.90;;;;;;5050229;28;20184;-69
2022/11/02 05:10:02;;;;;;;2.80;0.50;;;22.40;25.90;;;;;;5045476;28;20236;-68
2022/11/02 05:12:29;;;;;;;0.33;0.30;;;22.30;25.40;;;;;;5045650;28;20222;-69
2022/11/02 05:14:57;;;;;;;1.20;0.50;;;22.00;25.20;;;;;;5050119;28;20234;-71
2022/11/02 05:17:24;;;;;;;0.83;0.40;;;22.00;25.70;;;;;;5053469;28;20263;-69
2022/11/02 05:19:52;;;;;;;0.87;0.33;;;22.30;25.70;;;;;;5050329;28;20686;-70
2022/11/02 05:22:20;;;;;;;1.20;0.40;;;21.20;27.40;;;;;;5050970;28;20190;-72
2022/11/02 05:24:47;;;;;;;1.03;0.40;;;21.50;26.60;;;;;;5053013;28;20184;-71
2022/11/02 05:27:15;;;;;;;0.30;0.30;;;21.80;27.10;;;;;;5052913;28;20180;-71
2022/11/02 05:29:42;;;;;;;1.47;0.50;;;22.10;26.80;;;;;;5053180;28;20192;-71
2022/11/02 05:32:13;;;;;;;1.83;0.60;;;22.00;25.30;;;;;;5052729;28;20187;-71
2022/11/02 05:34:40;;;;;;;3.43;0.43;;;22.60;23.70;;;;;;5051762;28;20176;-70
2022/11/02 05:37:08;;;;;;;3.27;0.60;;;22.70;23.50;;;;;;5052812;28;20529;-74
2022/11/02 05:39:36;;;;;;;0.97;0.40;;;22.10;24.60;;;;;;5052243;28;20609;-72
2022/11/02 05:42:03;;;;;;;2.60;0.50;;;21.70;25.30;;;;;;5048471;28;20635;-72
2022/11/02 05:44:31;;;;;;;0.80;0.40;;;22.50;24.70;;;;;;5045559;28;20314;-70
2022/11/02 05:46:58;;;;;;;0.70;0.40;;;23.30;24.10;;;;;;5050179;28;20206;-71
2022/11/02 05:49:26;;;;;;;0.50;0.50;;;23.30;24.40;;;;;;5044362;28;20259;-69
2022/11/02 05:51:53;;;;;;;1.00;0.40;;;23.90;24.00;;;;;;5052582;28;20176;-70
2022/11/02 05:54:21;;;;;;;2.17;0.43;;;23.30;24.70;;;;;;5052388;28;20227;-70
2022/11/02 05:56:51;;;;;;;1.97;0.30;;;23.30;25.30;;;;;;5052360;28;20191;-72
2022/11/02 05:59:18;;;;;;;1.03;0.40;;;23.30;25.10;;;;;;5049802;28;20179;-69
2022/11/02 06:01:46;;;;;;;0.50;0.50;;;22.20;26.80;;;;;;5050865;28;20187;-72
2022/11/02 06:04:13;;;;;;;1.73;0.40;;;21.20;27.70;;;;;;5045509;28;20271;-71
2022/11/02 06:06:40;;;;;;;4.37;0.40;;;22.00;26.60;;;;;;5050284;28;20183;-71
2022/11/02 06:09:08;;;;;;;1.50;0.50;;;22.10;26.00;;;;;;5050411;28;20176;-71
2022/11/02 06:11:36;;;;;;;1.00;0.40;;;22.30;25.80;;;;;;5035794;28;20879;-69
2022/11/02 06:14:03;;;;;;;0.60;0.40;;;22.80;24.10;;;;;;5049560;28;20219;-73
2022/11/02 06:16:30;;;;;;;1.73;0.50;;;22.90;24.30;;;;;;5052500;28;20187;-71
2022/11/02 06:18:58;;;;;;;2.10;0.50;;;22.00;25.90;;;;;;5041861;28;20639;-70
2022/11/02 06:21:25;;;;;;;0.83;0.57;;;22.40;25.50;;;;;;5047793;28;20180;-69
2022/11/02 06:23:53;;;;;;;0.73;0.40;;;22.90;25.50;;;;;;5051939;28;20548;-69
2022/11/02 06:26:20;;;;;;;0.70;0.50;;;22.60;25.00;;;;;;5051490;28;20183;-69
2022/11/02 06:28:48;;;;;;;2.13;0.50;;;22.00;26.00;;;;;;5052075;28;20237;-70
2022/11/02 06:31:16;;;;;;;0.73;0.40;;;21.90;26.50;;;;;;5051103;28;20218;-72
2022/11/02 06:33:47;;;;;;;1.60;0.50;;;22.20;26.60;;;;;;5045955;28;20229;-71
2022/11/02 06:36:14;;;;;;;1.13;0.40;;;22.80;25.70;;;;;;5042646;28;20180;-68
2022/11/02 06:38:42;;;;;;;2.30;0.50;;;21.80;27.20;;;;;;5056803;28;20198;-71
2022/11/02 06:41:10;;;;;;;2.67;0.80;;;20.40;28.90;;;;;;5059603;28;20203;-71
2022/11/02 06:43:37;;;;;;;1.47;0.70;;;20.80;28.50;;;;;;5050893;28;20697;-71
2022/11/02 06:46:05;;;;;;;1.63;0.50;;;21.70;28.10;;;;;;5052152;28;20655;-71
2022/11/02 06:48:36;;;;;;;0.40;0.40;;;21.20;28.60;;;;;;5054053;28;20675;-71
2022/11/02 06:51:05;;;;;;;1.20;0.50;;;21.60;28.50;;;;;;5055397;28;20650;-72
2022/11/02 06:53:33;;;;;;;0.60;0.50;;;20.90;28.70;;;;;;5055811;28;20240;-68
2022/11/02 06:56:00;;;;;;;4.20;0.70;;;20.40;29.80;;;;;;5055441;28;20231;-69
2022/11/02 06:58:28;;;;;;;1.20;0.50;;;20.30;28.80;;;;;;5054939;28;20190;-69
2022/11/02 07:01:01;;;;;;;0.50;0.40;;;20.00;27.80;;;;;;5055018;28;20237;-71
2022/11/02 07:03:28;;;;;;;0.80;0.60;;;19.90;27.70;;;;;;5055308;28;20238;-72
2022/11/02 07:05:57;;;;;;;1.73;0.40;;;19.80;29.20;;;;;;5055197;28;20195;-69
2022/11/02 07:08:26;;;;;;;5.87;0.67;;;20.30;28.60;;;;;;5031660;28;20704;-67
2022/11/02 07:10:54;;;;;;;0.97;0.50;;;20.30;28.90;;;;;;5055320;28;20267;-71
2022/11/02 07:13:22;;;;;;;1.47;0.60;;;19.60;30.90;;;;;;5055799;28;20257;-68
2022/11/02 07:15:52;;;;;;;1.63;0.70;;;19.70;31.60;;;;;;5055925;28;20176;-69
2022/11/02 07:18:20;;;;;;;1.00;0.50;;;19.80;31.60;;;;;;5055239;28;20198;-70
2022/11/02 07:20:48;;;;;;;0.90;0.80;;;19.80;32.20;;;;;;5055717;28;20172;-70
2022/11/02 07:23:15;;;;;;;1.43;0.80;;;19.30;32.90;;;;;;5037770;28;20184;-70
2022/11/02 07:25:42;;;;;;;2.50;0.50;;;19.50;32.90;;;;;;5055352;28;20539;-71
2022/11/02 07:28:10;;;;;;;0.73;0.60;;;19.20;33.20;;;;;;5055729;28;20188;-69
2022/11/02 07:30:37;;;;;;;1.10;0.60;;;18.30;33.80;;;;;;5055295;28;20257;-69
2022/11/02 07:33:05;;;;;;;1.17;0.50;;;17.90;33.60;;;;;;5054853;28;20210;-72
2022/11/02 07:35:35;;;;;;;2.03;0.63;;;17.80;33.80;;;;;;5054852;28;20208;-72
2022/11/02 07:38:05;;;;;;;0.67;0.50;;;17.50;35.00;;;;;;5055545;28;20191;-70
2022/11/02 07:40:35;;;;;;;0.97;0.70;;;17.30;35.20;;;;;;5055067;28;20186;-71
2022/11/02 07:43:02;;;;;;;1.20;0.60;;;17.00;35.80;;;;;;5055466;28;20669;-69
2022/11/02 07:45:30;;;;;;;1.43;0.60;;;17.10;35.90;;;;;;5055509;28;20239;-69
2022/11/02 07:47:57;;;;;;;0.90;0.53;;;16.90;35.90;;;;;;5055114;28;20256;-71
2022/11/02 07:50:34;;;;;;;0.70;0.70;;;16.70;36.30;;;;;;5055083;28;20195;-73
2022/11/02 07:53:01;;;;;;;0.93;0.70;;;16.50;36.80;;;;;;5055113;28;20697;-70
2022/11/02 07:55:30;;;;;;;1.23;0.70;;;16.50;37.40;;;;;;5054057;28;20197;-74
2022/11/02 07:58:03;;;;;;;1.80;0.97;;;16.40;37.80;;;;;;5054613;28;20584;-71
2022/11/02 08:00:33;;;;;;;0.77;0.70;;;16.50;37.70;;;;;;5055355;28;20201;-71
2022/11/02 08:03:02;;;;;;;0.80;0.57;;;16.30;37.80;;;;;;5054675;28;20182;-70
2022/11/02 08:05:30;;;;;;;0.53;0.53;;;16.30;38.60;;;;;;5054801;28;20207;-72
2022/11/02 08:07:59;;;;;;;0.63;0.63;;;16.30;38.80;;;;;;5054777;28;20177;-72
2022/11/02 08:10:28;;;;;;;1.47;0.80;;;16.20;38.60;;;;;;5044994;28;20188;-68
2022/11/02 08:12:56;;;;;;;2.27;0.70;;;16.10;38.00;;;;;;5054683;28;20267;-69
2022/11/02 08:15:24;;;;;;;0.70;0.70;;;15.90;38.10;;;;;;5054554;28;20235;-68
2022/11/02 08:18:05;;;;;;;1.00;0.90;;;15.80;38.00;;;;;;5053484;28;20180;-72
2022/11/02 08:20:36;;;;;;;2.23;0.90;;;15.80;38.50;;;;;;5052003;28;20201;-72
2022/11/02 08:23:04;;;;;;;1.03;0.87;;;15.80;38.60;;;;;;5047884;28;20184;-69
2022/11/02 08:25:32;;;;;;;0.93;0.60;;;15.70;38.80;;;;;;5053821;28;20194;-70
2022/11/02 08:28:02;;;;;;;1.10;0.90;;;15.60;39.00;;;;;;5055028;28;20172;-70
2022/11/02 08:30:31;;;;;;;1.13;0.93;;;15.60;39.30;;;;;;5069227;28;20180;-71
2022/11/02 08:33:06;;;;;;;0.80;0.80;;;15.60;39.50;;;;;;5051519;28;20216;-69
2022/11/02 08:35:36;;;;;;;0.77;0.77;;;15.50;39.80;;;;;;5054105;28;20230;-70
2022/11/02 08:38:05;;;;;;;1.57;0.70;;;15.40;40.00;;;;;;5049808;28;20189;-72
2022/11/02 08:40:33;;;;;;;1.33;0.87;;;15.40;40.40;;;;;;5053164;28;20224;-69
2022/11/02 08:43:05;;;;;;;1.97;0.90;;;15.40;40.20;;;;;;5050607;28;20725;-70
2022/11/02 08:45:34;;;;;;;1.50;1.10;;;15.30;40.50;;;;;;5053899;28;20233;-71
2022/11/02 08:48:06;;;;;;;1.80;1.00;;;15.30;40.90;;;;;;5046695;28;20222;-70
2022/11/02 08:50:34;;;;;;;3.27;0.90;;;15.30;41.30;;;;;;5051075;28;20259;-71
2022/11/02 08:53:02;;;;;;;2.30;0.93;;;15.20;41.40;;;;;;5053980;28;20203;-72
2022/11/02 08:55:29;;;;;;;2.83;1.10;;;15.20;41.50;;;;;;5053602;28;20179;-70
2022/11/02 08:57:59;;;;;;;1.47;0.90;;;15.20;41.80;;;;;;5053578;28;20168;-71
2022/11/02 09:00:29;;;;;;;2.50;0.90;;;15.20;41.80;;;;;;5052690;28;20188;-69
2022/11/02 09:03:13;;;;;;;1.20;0.90;;;15.10;41.80;;;;;;5050439;28;20542;-70
2022/11/02 09:05:43;;;;;;;2.77;0.90;;;15.00;41.70;;;;;;5053466;28;20187;-72
2022/11/02 09:08:16;;;;;;;1.03;0.83;;;15.00;41.80;;;;;;5035662;28;20221;-73
2022/11/02 09:10:45;;;;;;;1.33;1.00;;;15.00;41.70;;;;;;5052714;28;20189;-71
2022/11/02 09:13:14;;;;;;;3.63;0.93;;;15.00;41.70;;;;;;5049639;28;20218;-71
2022/11/02 09:15:41;;;;;;;1.10;0.90;;;14.90;41.50;;;;;;5034565;28;20705;-70
2022/11/02 09:18:09;;;;;;;0.93;0.93;;;14.90;41.70;;;;;;5053920;28;20628;-69
2022/11/02 09:20:37;;;;;;;1.27;0.90;;;15.00;41.80;;;;;;5054064;28;20188;-70
2022/11/02 09:23:05;;;;;;;1.57;0.90;;;14.90;42.00;;;;;;5052281;28;20187;-69
2022/11/02 09:25:32;;;;;;;1.63;0.90;;;14.90;41.70;;;;;;5047194;28;20203;-71
2022/11/02 09:27:59;;;;;;;1.20;0.83;;;14.90;42.00;;;;;;5053515;28;20696;-70
2022/11/02 09:30:30;;;;;;;1.43;0.80;;;14.80;42.10;;;;;;5052027;28;20272;-70
2022/11/02 09:33:05;;;;;;;5.37;1.30;;;14.80;42.20;;;;;;5028491;28;20307;-73
2022/11/02 09:35:36;;;;;;;3.07;0.93;;;14.80;42.40;;;;;;5046157;28;20632;-73
2022/11/02 09:38:04;;;;;;;3.93;1.40;;;14.80;42.20;;;;;;5052914;28;20177;-71
2022/11/02 09:40:40;;;;;;;1.03;0.90;;;14.80;42.30;;;;;;5049949;28;20525;-71
2022/11/02 09:43:19;;;;;;;1.43;1.10;;;14.80;42.40;;;;;;5052525;28;20194;-69
2022/11/02 09:46:06;;;;;;;2.03;1.40;;;14.80;42.60;;;;;;5052323;28;20184;-69
2022/11/02 09:48:48;;;;;;;2.03;1.00;;;14.80;42.60;;;;;;5050710;28;20203;-70
2022/11/02 09:51:40;;;;;;;1.97;1.20;;;14.80;42.70;;;;;;5050650;28;20176;-71
2022/11/02 09:54:29;;;;;;;1.47;1.10;;;14.80;42.60;;;;;;5042879;28;20310;-70
2022/11/02 09:57:16;;;;;;;4.87;1.27;;;14.70;42.50;;;;;;5044425;28;20172;-68
2022/11/02 09:59:44;;;;;;;4.20;1.00;;;14.60;42.80;;;;;;5051267;28;20686;-71
2022/11/02 10:02:32;;;;;;;2.00;1.10;;;14.70;42.90;;;;;;5048005;28;20184;-69
2022/11/02 10:05:32;;;;;;;2.00;0.93;;;14.70;42.70;;;;;;5052602;28;20198;-72
2022/11/02 10:08:18;;;;;;;1.23;0.90;;;14.70;42.70;;;;;;5052000;28;20578;-68
2022/11/02 10:11:01;;;;;;;3.23;1.00;;;14.70;43.00;;;;;;5052741;28;20239;-70
2022/11/02 10:13:49;;;;;;;1.10;0.93;;;14.60;43.00;;;;;;5050627;28;20408;-70
2022/11/02 10:16:33;;;;;;;1.33;0.97;;;14.50;43.00;;;;;;5052017;28;20207;-71
2022/11/02 10:19:04;;;;;;;2.10;1.20;;;14.50;43.20;;;;;;5048460;28;20183;-72
2022/11/02 10:21:38;;;;;;;1.50;1.00;;;14.50;43.20;;;;;;5032533;28;20514;-70
2022/11/02 10:24:55;;;;;;;0.90;0.90;;;14.50;43.10;;;;;;5041255;28;20180;-70
2022/11/02 10:27:32;;;;;;;1.33;0.97;;;14.50;43.20;;;;;;4993368;28;20197;-69
2022/11/02 10:30:06;;;;;;;2.47;1.20;;;14.50;43.50;;;;;;5051505;28;20203;-70
2022/11/02 10:32:37;;;;;;;2.03;1.00;;;14.40;43.30;;;;;;5049633;28;20258;-71
2022/11/02 10:35:10;;;;;;;3.17;1.10;;;14.40;43.40;;;;;;5051622;28;20188;-70
2022/11/02 10:38:26;;;;;;;4.40;1.37;;;14.30;43.70;;;;;;5051215;28;20289;-66
2022/11/02 10:41:08;;;;;;;2.40;1.10;;;14.30;43.60;;;;;;5006048;28;20524;-71
2022/11/02 10:43:47;;;;;;;1.77;1.20;;;14.30;43.90;;;;;;5043138;28;20548;-69
2022/11/02 10:46:43;;;;;;;2.10;1.00;;;14.30;43.90;;;;;;5050991;28;20613;-69
2022/11/02 10:49:46;;;;;;;2.10;1.17;;;14.30;43.90;;;;;;5040013;28;20187;-69
2022/11/02 10:52:16;;;;;;;0.97;0.83;;;14.20;44.10;;;;;;5023571;28;20210;-70
2022/11/02 10:54:43;;;;;;;1.73;1.10;;;14.20;44.60;;;;;;5047437;28;20307;-70
2022/11/02 10:57:18;;;;;;;2.47;1.10;;;14.30;44.20;;;;;;5051533;28;20214;-68
2022/11/02 11:00:06;;;;;;;1.50;0.90;;;14.20;44.40;;;;;;5049489;28;20649;-69
2022/11/02 11:02:33;;;;;;;2.10;1.00;;;14.20;44.80;;;;;;5051598;28;20638;-70
2022/11/02 11:05:20;;;;;;;1.43;1.23;;;14.20;44.70;;;;;;5050187;28;20264;-70
2022/11/02 11:07:48;;;;;;;2.77;0.90;;;14.20;44.80;;;;;;5048730;28;20176;-68
2022/11/02 11:10:16;;;;;;;1.67;1.20;;;14.20;45.10;;;;;;5051985;28;20184;-70
2022/11/02 11:12:45;;;;;;;2.53;1.03;;;14.20;45.30;;;;;;5052048;28;20571;-72
2022/11/02 11:15:31;;;;;;;3.13;1.03;;;14.20;45.20;;;;;;5051444;28;20724;-71
2022/11/02 11:17:59;;;;;;;5.67;1.10;;;14.10;45.40;;;;;;5040214;28;20183;-70
2022/11/02 11:20:35;;;;;;;6.27;2.60;;;14.00;45.60;;;;;;5033740;28;20589;-70
2022/11/02 11:23:08;;;;;;;1.97;1.10;;;14.10;46.10;;;;;;5051912;28;20674;-71
2022/11/02 11:25:36;;;;;;;2.53;1.20;;;14.00;45.40;;;;;;5046323;28;20183;-70
2022/11/02 11:28:39;;;;;;;4.17;1.20;;;14.00;45.80;;;;;;5050818;28;20271;-72
2022/11/02 11:31:17;;;;;;;1.97;1.30;;;14.00;45.60;;;;;;5051266;28;20184;-70
2022/11/02 11:33:58;;;;;;;2.37;1.13;;;14.00;45.70;;;;;;5054992;28;20214;-70
2022/11/02 11:36:30;;;;;;;2.30;1.10;;;14.00;45.90;;;;;;5054198;28;20180;-70
2022/11/02 11:39:07;;;;;;;1.00;0.90;;;13.90;46.20;;;;;;5055364;28;20274;-71
2022/11/02 11:41:39;;;;;;;2.87;1.00;;;13.90;46.60;;;;;;5054165;28;20248;-69
2022/11/02 11:44:13;;;;;;;1.90;0.90;;;13.90;46.60;;;;;;5055160;28;20231;-69
2022/11/02 11:46:53;;;;;;;1.77;1.00;;;13.90;46.50;;;;;;5055173;28;20233;-72
2022/11/02 11:49:34;;;;;;;5.60;1.00;;;13.80;46.80;;;;;;5036562;28;20641;-72
2022/11/02 11:52:03;;;;;;;1.67;1.03;;;13.80;47.00;;;;;;5053663;28;20557;-70
2022/11/02 11:54:32;;;;;;;1.83;1.10;;;13.80;46.80;;;;;;5055061;28;20219;-70
2022/11/02 11:57:36;;;;;;;1.90;1.17;;;13.80;46.50;;;;;;5055038;28;20207;-70
2022/11/02 12:00:27;;;;;;;1.50;0.97;;;13.80;46.80;;;;;;4993585;28;20283;-70
2022/11/02 12:03:12;;;;;;;1.80;1.03;;;13.70;46.80;;;;;;5047758;28;20566;-71
2022/11/02 12:05:54;;;;;;;1.50;1.00;;;13.80;47.20;;;;;;5055056;28;20622;-71
2022/11/02 12:08:47;;;;;;;1.50;0.90;;;13.80;46.80;;;;;;5052045;28;21996;-71
2022/11/02 12:11:25;;;;;;;2.77;0.97;;;13.80;47.20;;;;;;5054659;28;20191;-69
2022/11/02 12:14:07;;;;;;;2.10;1.10;;;13.70;47.10;;;;;;5054981;28;20215;-70
2022/11/02 12:16:59;;;;;;;1.93;1.10;;;13.70;47.30;;;;;;5055066;28;20188;-70
2022/11/02 12:19:55;;;;;;;3.60;1.00;;;13.70;47.40;;;;;;5054417;28;20672;-68
2022/11/02 12:22:50;;;;;;;4.70;1.30;;;13.70;47.10;;;;;;5024897;28;20184;-71
2022/11/02 12:25:20;;;;;;;2.90;1.13;;;13.70;47.70;;;;;;5041131;28;20184;-71
2022/11/02 12:28:05;;;;;;;2.13;1.00;;;13.70;47.50;;;;;;5054808;28;20709;-69
2022/11/02 12:31:16;;;;;;;2.30;1.10;;;13.60;47.90;;;;;;5051749;28;20190;-69
2022/11/02 12:34:07;;;;;;;1.60;1.10;;;13.50;48.00;;;;;;5053758;28;20213;-71
2022/11/02 12:36:47;;;;;;;3.03;1.40;;;13.40;48.40;;;;;;5054290;28;20559;-69
2022/11/02 12:39:25;;;;;;;6.07;1.10;;;13.50;48.10;;;;;;5053888;28;20592;-71
2022/11/02 12:42:12;;;;;;;4.57;1.30;;;13.50;48.30;;;;;;5053828;28;20179;-71
2022/11/02 12:44:55;;;;;;;1.47;1.00;;;13.50;48.60;;;;;;5054376;28;20220;-71
2022/11/02 12:47:49;;;;;;;3.17;1.33;;;13.40;48.40;;;;;;5041162;28;20186;-70
2022/11/02 12:50:25;;;;;;;4.77;1.50;;;13.50;48.50;;;;;;5040696;28;20657;-71
2022/11/02 12:53:07;;;;;;;5.23;1.27;;;13.50;48.50;;;;;;5055865;28;20306;-72
2022/11/02 12:55:48;;;;;;;1.80;1.10;;;13.50;49.40;;;;;;5041263;28;20180;-72
2022/11/02 12:58:40;;;;;;;4.37;1.20;;;13.50;49.50;;;;;;5054244;28;20176;-71
2022/11/02 13:01:11;;;;;;;3.43;1.40;;;13.40;50.20;;;;;;5054327;28;20176;-72
2022/11/02 13:04:17;;;;;;;3.13;1.40;;;13.20;50.30;;;;;;5054118;28;20203;-72
2022/11/02 13:06:48;;;;;;;5.87;1.60;;;13.20;50.40;;;;;;5053720;28;20341;-71
2022/11/02 13:09:27;;;;;;;9.13;1.60;;;13.20;50.60;;;;;;5040104;28;20176;-71
2022/11/02 13:12:04;;;;;;;5.57;1.67;;;13.20;50.70;;;;;;5048182;28;20687;-71
2022/11/02 13:14:40;;;;;;;3.60;1.30;;;13.10;51.10;;;;;;5052275;28;20211;-70
2022/11/02 13:17:34;;;;;;;2.07;1.10;;;13.10;51.40;;;;;;5052264;28;20183;-71
2022/11/02 13:20:24;;;;;;;2.30;1.27;;;13.10;51.40;;;;;;5035563;28;20680;-72
2022/11/02 13:23:02;;;;;;;5.03;1.10;;;13.00;51.60;;;;;;5053944;28;20180;-70
2022/11/02 13:25:54;;;;;;;5.13;1.77;;;13.00;51.30;;;;;;5039974;28;20176;-72
2022/11/02 13:28:50;;;;;;;3.97;1.60;;;13.00;51.50;;;;;;5053989;28;20184;-72
2022/11/02 13:31:45;;;;;;;4.10;1.33;;;13.00;51.70;;;;;;5053544;28;20215;-70
2022/11/02 13:34:17;;;;;;;1.57;1.10;;;13.00;51.80;;;;;;5041374;28;20734;-72
2022/11/02 13:36:45;;;;;;;3.17;1.20;;;13.00;52.10;;;;;;5053178;28;20176;-72
2022/11/02 13:39:21;;;;;;;1.47;1.27;;;13.00;52.60;;;;;;5053132;28;20183;-69
2022/11/02 13:42:27;;;;;;;2.27;1.10;;;12.90;52.40;;;;;;5053084;28;20172;-70
2022/11/02 13:44:54;;;;;;;1.23;1.00;;;12.90;52.70;;;;;;4998965;28;20222;-70